createdAt,value
2018-09-20T00:00:52.822Z,16.00
2018-09-20T00:03:21.117Z,15.93
2018-09-20T00:05:49.391Z,12.87
2018-09-20T00:08:17.640Z,13.40
2018-09-20T00:10:46.014Z,18.07
2018-09-20T00:13:14.294Z,13.90
2018-09-20T00:15:42.557Z,12.93
2018-09-20T00:18:10.820Z,16.50
2018-09-20T00:20:39.083Z,16.17
2018-09-20T00:23:07.430Z,13.75
2018-09-20T00:25:35.714Z,16.83
2018-09-20T00:28:03.998Z,14.63
2018-09-20T00:30:32.270Z,14.57
2018-09-20T00:33:00.513Z,16.47
2018-09-20T00:35:28.799Z,13.28
2018-09-20T00:37:57.078Z,13.48
2018-09-20T00:40:25.369Z,18.23
2018-09-20T00:42:53.683Z,13.60
2018-09-20T00:45:21.958Z,13.63
2018-09-20T00:47:50.348Z,15.53
2018-09-20T00:50:18.626Z,19.57
2018-09-20T00:52:46.902Z,13.05
2018-09-20T00:55:15.168Z,17.80
2018-09-20T00:57:43.451Z,13.03
2018-09-20T01:00:11.722Z,14.58
2018-09-20T01:02:40.026Z,16.45
2018-09-20T01:05:08.318Z,16.20
2018-09-20T01:07:36.584Z,16.60
2018-09-20T01:10:04.879Z,15.63
2018-09-20T01:12:33.155Z,17.30
2018-09-20T01:15:01.425Z,15.90
2018-09-20T01:17:30.020Z,15.40
2018-09-20T01:19:58.277Z,16.07
2018-09-20T01:22:26.616Z,15.48
2018-09-20T01:24:54.896Z,14.25
2018-09-20T01:27:23.165Z,15.55
2018-09-20T01:29:51.573Z,16.50
2018-09-20T01:32:19.845Z,15.58
2018-09-20T01:34:48.174Z,14.15
2018-09-20T01:37:16.744Z,14.38
2018-09-20T01:39:45.006Z,16.23
2018-09-20T01:42:13.353Z,21.12
2018-09-20T01:44:41.643Z,15.28
2018-09-20T01:47:09.896Z,13.00
2018-09-20T01:49:38.164Z,13.45
2018-09-20T01:52:06.431Z,20.10
2018-09-20T01:54:34.707Z,19.00
2018-09-20T01:57:02.973Z,11.68
2018-09-20T01:59:31.246Z,20.40
2018-09-20T02:01:59.523Z,16.45
2018-09-20T02:04:27.844Z,12.85
2018-09-20T02:06:56.228Z,19.77
2018-09-20T02:09:24.476Z,16.32
2018-09-20T02:11:53.149Z,17.07
2018-09-20T02:14:21.408Z,14.03
2018-09-20T02:16:49.687Z,20.55
2018-09-20T02:19:17.958Z,15.30
2018-09-20T02:21:46.224Z,14.30
2018-09-20T02:24:14.500Z,17.25
2018-09-20T02:26:42.804Z,18.02
2018-09-20T02:29:11.064Z,15.45
2018-09-20T02:31:39.309Z,18.62
2018-09-20T02:34:07.574Z,19.52
2018-09-20T02:36:37.780Z,14.25
2018-09-20T02:39:07.311Z,14.50
2018-09-20T02:41:35.590Z,15.90
2018-09-20T02:44:04.225Z,15.55
2018-09-20T02:46:32.484Z,18.55
2018-09-20T02:49:00.863Z,17.63
2018-09-20T02:51:29.146Z,14.70
2018-09-20T02:53:57.415Z,18.12
2018-09-20T02:56:25.683Z,21.40
2018-09-20T02:58:54.072Z,15.65
2018-09-20T03:01:22.339Z,16.93
2018-09-20T03:03:50.648Z,13.78
2018-09-20T03:06:19.047Z,14.13
2018-09-20T03:08:47.308Z,20.20
2018-09-20T03:11:15.595Z,13.10
2018-09-20T03:13:43.868Z,20.68
2018-09-20T03:16:12.124Z,15.10
2018-09-20T03:18:40.394Z,15.50
2018-09-20T03:21:08.660Z,18.42
2018-09-20T03:23:36.910Z,15.98
2018-09-20T03:26:05.175Z,11.88
2018-09-20T03:28:33.900Z,18.98
2018-09-20T03:31:02.227Z,13.80
2018-09-20T03:33:30.607Z,15.63
2018-09-20T03:35:58.891Z,17.12
2018-09-20T03:38:27.160Z,13.88
2018-09-20T03:40:55.425Z,14.55
2018-09-20T03:43:23.678Z,16.10
2018-09-20T03:45:51.939Z,24.98
2018-09-20T03:48:20.219Z,16.95
2018-09-20T03:50:48.514Z,16.42
2018-09-20T03:53:16.781Z,12.73
2018-09-20T03:55:45.044Z,18.67
2018-09-20T03:58:13.840Z,14.93
2018-09-20T04:00:42.118Z,25.57
2018-09-20T04:03:10.524Z,37.98
2018-09-20T04:05:38.790Z,46.68
2018-09-20T04:08:08.026Z,65.75
2018-09-20T04:10:36.280Z,68.50
2018-09-20T04:13:04.560Z,51.18
2018-09-20T04:15:32.817Z,33.02
2018-09-20T04:18:02.115Z,27.58
2018-09-20T04:20:30.407Z,14.63
2018-09-20T04:22:58.672Z,19.73
2018-09-20T04:25:26.939Z,24.87
2018-09-20T04:27:55.192Z,19.35
2018-09-20T04:30:23.472Z,19.05
2018-09-20T04:32:52.663Z,17.10
2018-09-20T04:35:20.952Z,17.25
2018-09-20T04:37:49.226Z,17.67
2018-09-20T04:40:17.503Z,13.68
2018-09-20T04:42:45.761Z,18.87
2018-09-20T04:45:14.391Z,16.00
2018-09-20T04:47:42.684Z,17.10
2018-09-20T04:50:10.962Z,22.60
2018-09-20T04:52:39.297Z,17.55
2018-09-20T04:55:09.721Z,17.98
2018-09-20T04:57:38.031Z,27.37
2018-09-20T05:00:06.367Z,18.95
2018-09-20T05:02:34.763Z,20.02
2018-09-20T05:05:03.057Z,17.60
2018-09-20T05:07:31.316Z,16.90
2018-09-20T05:09:59.583Z,15.88
2018-09-20T05:12:27.858Z,26.60
2018-09-20T05:14:57.550Z,15.23
2018-09-20T05:17:25.887Z,18.55
2018-09-20T05:19:54.157Z,17.25
2018-09-20T05:22:22.418Z,20.65
2018-09-20T05:24:52.841Z,18.40
2018-09-20T05:27:21.100Z,16.50
2018-09-20T05:29:49.485Z,17.00
2018-09-20T05:32:17.755Z,17.25
2018-09-20T05:34:46.040Z,15.03
2018-09-20T05:37:15.420Z,14.65
2018-09-20T05:39:43.682Z,17.57
2018-09-20T05:42:11.992Z,15.90
2018-09-20T05:44:40.328Z,19.23
2018-09-20T05:47:08.592Z,16.23
2018-09-20T05:49:36.862Z,19.45
2018-09-20T05:52:05.277Z,18.62
2018-09-20T05:54:33.555Z,18.17
2018-09-20T05:57:01.880Z,17.12
2018-09-20T05:59:30.224Z,20.97
2018-09-20T06:01:58.559Z,17.40
2018-09-20T06:04:26.906Z,26.30
2018-09-20T06:06:55.186Z,19.70
2018-09-20T06:09:23.459Z,23.32
2018-09-20T06:11:51.745Z,18.52
2018-09-20T06:14:20.056Z,19.60
2018-09-20T06:16:48.574Z,21.05
2018-09-20T06:19:16.861Z,18.10
2018-09-20T06:21:45.165Z,19.20
2018-09-20T06:24:13.840Z,20.05
2018-09-20T06:26:42.394Z,17.77
2018-09-20T06:29:10.843Z,28.10
2018-09-20T06:31:39.433Z,16.42
2018-09-20T06:34:07.768Z,25.12
2018-09-20T06:36:36.081Z,17.48
2018-09-20T06:39:06.475Z,18.30
2018-09-20T06:41:34.718Z,23.42
2018-09-20T06:44:03.023Z,20.82
2018-09-20T06:46:31.285Z,19.13
2018-09-20T06:48:59.527Z,16.13
2018-09-20T06:51:27.800Z,15.30
2018-09-20T06:53:56.132Z,19.67
2018-09-20T06:56:24.450Z,23.17
2018-09-20T06:58:52.836Z,16.03
2018-09-20T07:01:21.144Z,16.73
2018-09-20T07:03:49.534Z,15.47
2018-09-20T07:06:17.847Z,18.63
2018-09-20T07:08:46.162Z,16.23
2018-09-20T07:11:14.438Z,15.43
2018-09-20T07:13:42.944Z,15.67
2018-09-20T07:16:11.182Z,15.00
2018-09-20T07:18:39.511Z,22.40
2018-09-20T07:21:07.828Z,16.30
2018-09-20T07:23:36.116Z,19.03
2018-09-20T07:26:04.391Z,18.53
2018-09-20T07:28:32.632Z,17.13
2018-09-20T07:31:01.795Z,21.60
2018-09-20T07:33:30.174Z,16.27
2018-09-20T07:35:58.421Z,22.93
2018-09-20T07:38:26.656Z,11.40
2018-09-20T07:40:55.089Z,13.77
2018-09-20T07:43:23.400Z,15.30
2018-09-20T07:45:52.019Z,15.27
2018-09-20T07:48:21.192Z,19.43
2018-09-20T07:50:49.435Z,16.93
2018-09-20T07:53:17.673Z,11.30
2018-09-20T07:55:45.933Z,11.53
2018-09-20T07:58:14.207Z,13.20
2018-09-20T08:00:42.456Z,11.37
2018-09-20T08:03:10.708Z,12.07
2018-09-20T08:05:38.993Z,18.33
2018-09-20T08:08:07.259Z,11.97
2018-09-20T08:10:35.521Z,20.47
2018-09-20T08:13:03.833Z,16.37
2018-09-20T08:15:32.079Z,15.20
2018-09-20T08:18:00.486Z,11.00
2018-09-20T08:20:28.776Z,7.00
2018-09-20T08:22:57.046Z,8.80
2018-09-20T08:25:25.655Z,18.77
2018-09-20T08:27:54.260Z,12.60
2018-09-20T08:30:22.878Z,9.50
2018-09-20T08:32:51.508Z,7.27
2018-09-20T08:35:20.135Z,7.27
2018-09-20T08:37:48.804Z,9.33
2018-09-20T08:40:17.743Z,10.80
2018-09-20T08:42:47.294Z,10.80
2018-09-20T08:45:19.656Z,20.23
2018-09-20T08:47:49.193Z,11.80
2018-09-20T08:50:17.921Z,7.47
2018-09-20T08:52:46.672Z,8.10
2018-09-20T08:55:15.246Z,9.27
2018-09-20T08:57:50.442Z,6.23
2018-09-20T09:00:19.202Z,10.63
2018-09-20T09:02:50.188Z,7.50
2018-09-20T09:05:18.910Z,7.30
2018-09-20T09:07:48.376Z,12.47
2018-09-20T09:10:16.969Z,9.07
2018-09-20T09:12:45.565Z,10.03
2018-09-20T09:15:14.892Z,9.90
2018-09-20T09:17:44.049Z,7.57
2018-09-20T09:20:15.295Z,8.33
2018-09-20T09:22:43.902Z,15.53
2018-09-20T09:25:13.026Z,14.50
2018-09-20T09:27:41.633Z,7.90
2018-09-20T09:30:10.236Z,8.37
2018-09-20T09:32:38.797Z,5.97
2018-09-20T09:35:07.386Z,5.27
2018-09-20T09:37:36.748Z,13.63
2018-09-20T09:40:05.408Z,13.50
2018-09-20T09:42:35.057Z,5.00
2018-09-20T09:45:03.658Z,6.80
2018-09-20T09:47:32.268Z,8.40
2018-09-20T09:50:00.862Z,4.57
2018-09-20T09:52:29.507Z,10.00
2018-09-20T09:54:58.108Z,6.60
2018-09-20T09:57:26.700Z,15.23
2018-09-20T09:59:55.314Z,5.70
2018-09-20T10:02:23.928Z,4.50
2018-09-20T10:04:52.575Z,7.50
2018-09-20T10:07:21.547Z,5.60
2018-09-20T10:09:50.881Z,5.10
2018-09-20T10:12:20.224Z,5.27
2018-09-20T10:14:48.803Z,9.07
2018-09-20T10:17:17.458Z,5.00
2018-09-20T10:19:46.183Z,7.63
2018-09-20T10:22:14.785Z,9.73
2018-09-20T10:24:43.519Z,7.43
2018-09-20T10:27:14.147Z,4.27
2018-09-20T10:29:50.424Z,7.77
2018-09-20T10:32:19.801Z,12.20
2018-09-20T10:34:51.352Z,7.40
2018-09-20T10:37:22.753Z,4.60
2018-09-20T10:39:51.862Z,9.57
2018-09-20T10:42:21.453Z,4.90
2018-09-20T10:44:50.715Z,4.80
2018-09-20T10:47:22.361Z,18.40
2018-09-20T10:49:52.827Z,4.50
2018-09-20T10:52:22.338Z,5.40
2018-09-20T10:54:52.655Z,5.63
2018-09-20T10:57:21.301Z,10.13
2018-09-20T10:59:56.023Z,4.40
2018-09-20T11:02:25.416Z,3.77
2018-09-20T11:04:59.054Z,7.90
2018-09-20T11:07:29.393Z,20.10
2018-09-20T11:10:02.757Z,7.70
2018-09-20T11:12:32.398Z,7.73
2018-09-20T11:15:04.210Z,3.70
2018-09-20T11:17:34.828Z,6.30
2018-09-20T11:20:05.090Z,9.23
2018-09-20T11:22:35.762Z,4.73
2018-09-20T11:25:09.550Z,6.93
2018-09-20T11:27:39.423Z,4.50
2018-09-20T11:30:12.300Z,5.43
2018-09-20T11:32:42.426Z,6.70
2018-09-20T11:35:15.315Z,4.90
2018-09-20T11:37:46.204Z,4.03
2018-09-20T11:40:17.107Z,5.93
2018-09-20T11:42:48.077Z,7.93
2018-09-20T11:45:18.890Z,14.90
2018-09-20T11:47:49.176Z,4.47
2018-09-20T11:50:22.954Z,4.57
2018-09-20T11:52:53.996Z,4.50
2018-09-20T11:55:27.708Z,4.70
2018-09-20T11:57:56.412Z,5.20
2018-09-20T12:00:29.829Z,8.33
2018-09-20T12:02:59.189Z,11.43
2018-09-20T12:05:28.672Z,7.37
2018-09-20T12:08:04.817Z,5.80
2018-09-20T12:10:34.324Z,17.53
2018-09-20T12:13:03.914Z,4.07
2018-09-20T12:15:35.812Z,6.20
2018-09-20T12:18:10.266Z,4.60
2018-09-20T12:20:38.858Z,4.60
2018-09-20T12:23:10.755Z,9.83
2018-09-20T12:25:43.143Z,5.00
2018-09-20T12:28:13.580Z,6.87
2018-09-20T12:30:47.314Z,11.03
2018-09-20T12:33:16.867Z,5.33
2018-09-20T12:35:49.833Z,7.90
2018-09-20T12:38:19.566Z,4.87
2018-09-20T12:40:49.418Z,6.93
2018-09-20T12:43:18.745Z,5.10
2018-09-20T12:45:47.321Z,10.37
2018-09-20T12:48:18.141Z,6.67
2018-09-20T12:50:48.637Z,5.07
2018-09-20T12:53:17.282Z,6.20
2018-09-20T12:55:47.207Z,9.83
2018-09-20T12:58:15.825Z,6.60
2018-09-20T13:00:49.051Z,5.27
2018-09-20T13:03:17.701Z,6.13
2018-09-20T13:05:48.785Z,4.00
2018-09-20T13:08:21.377Z,16.43
2018-09-20T13:10:50.828Z,8.53
2018-09-20T13:13:23.734Z,10.03
2018-09-20T13:15:52.589Z,8.97
2018-09-20T13:18:22.852Z,5.00
2018-09-20T13:20:53.008Z,6.43
2018-09-20T13:23:25.845Z,13.10
2018-09-20T13:25:57.262Z,9.30
2018-09-20T13:28:27.751Z,7.43
2018-09-20T13:30:58.602Z,5.13
2018-09-20T13:33:31.088Z,4.87
2018-09-20T13:36:01.877Z,11.83
2018-09-20T13:38:32.634Z,6.93
2018-09-20T13:41:03.949Z,10.57
2018-09-20T13:43:33.151Z,5.33
2018-09-20T13:46:01.765Z,7.90
2018-09-20T13:48:31.403Z,8.40
2018-09-20T13:51:00.877Z,4.30
2018-09-20T13:53:30.791Z,5.13
2018-09-20T13:56:05.524Z,10.10
2018-09-20T13:58:35.570Z,5.40
2018-09-20T14:01:05.973Z,6.63
2018-09-20T14:03:36.296Z,7.27
2018-09-20T14:06:05.851Z,6.20
2018-09-20T14:08:38.617Z,5.43
2018-09-20T14:11:08.003Z,5.27
2018-09-20T14:13:36.608Z,6.20
2018-09-20T14:16:05.188Z,6.00
2018-09-20T14:18:34.381Z,8.13
2018-09-20T14:21:04.850Z,6.10
2018-09-20T14:23:33.522Z,8.00
2018-09-20T14:26:03.026Z,5.67
2018-09-20T14:28:35.214Z,13.17
2018-09-20T14:31:03.811Z,6.40
2018-09-20T14:33:32.401Z,5.83
2018-09-20T14:36:01.974Z,7.10
2018-09-20T14:38:33.442Z,9.03
2018-09-20T14:41:02.182Z,8.57
2018-09-20T14:43:31.564Z,7.80
2018-09-20T14:46:02.361Z,4.50
2018-09-20T14:48:31.706Z,9.43
2018-09-20T14:51:01.161Z,7.60
2018-09-20T14:53:29.796Z,8.70
2018-09-20T14:55:59.037Z,6.27
2018-09-20T14:58:27.731Z,5.50
2018-09-20T15:00:58.228Z,5.10
2018-09-20T15:03:28.835Z,6.13
2018-09-20T15:05:58.124Z,5.07
2018-09-20T15:08:26.859Z,7.23
2018-09-20T15:10:57.544Z,5.63
2018-09-20T15:13:26.136Z,10.90
2018-09-20T15:15:55.698Z,9.23
2018-09-20T15:18:24.340Z,10.63
2018-09-20T15:20:58.736Z,6.63
2018-09-20T15:23:28.004Z,7.90
2018-09-20T15:25:57.848Z,8.50
2018-09-20T15:28:27.494Z,11.13
2018-09-20T15:30:58.879Z,11.53
2018-09-20T15:33:33.737Z,6.50
2018-09-20T15:36:06.201Z,8.80
2018-09-20T15:38:42.311Z,4.80
2018-09-20T15:41:12.848Z,7.10
2018-09-20T15:43:43.033Z,5.40
2018-09-20T15:46:12.974Z,9.43
2018-09-20T15:48:53.928Z,5.87
2018-09-20T15:51:30.756Z,10.77
2018-09-20T15:54:02.025Z,4.50
2018-09-20T15:56:34.304Z,16.63
2018-09-20T15:59:06.010Z,6.20
2018-09-20T16:01:35.551Z,19.00
2018-09-20T16:04:06.143Z,10.73
2018-09-20T16:06:34.907Z,16.37
2018-09-20T16:09:09.859Z,10.67
2018-09-20T16:11:40.975Z,11.23
2018-09-20T16:14:09.765Z,5.23
2018-09-20T16:16:41.106Z,13.30
2018-09-20T16:19:12.795Z,8.13
2018-09-20T16:21:45.401Z,9.83
2018-09-20T16:24:19.032Z,8.70
2018-09-20T16:26:49.479Z,6.90
2018-09-20T16:29:44.553Z,6.30
2018-09-20T16:32:36.408Z,7.80
2018-09-20T16:35:21.243Z,4.80
2018-09-20T16:38:08.531Z,4.73
2018-09-20T16:40:42.127Z,6.40
2018-09-20T16:43:10.949Z,4.30
2018-09-20T16:45:39.517Z,4.43
2018-09-20T16:48:08.174Z,10.80
2018-09-20T16:50:36.777Z,4.17
2018-09-20T16:53:05.512Z,5.40
2018-09-20T16:55:36.795Z,6.30
2018-09-20T16:58:05.544Z,8.63
2018-09-20T17:00:34.546Z,8.73
2018-09-20T17:03:08.751Z,5.00
2018-09-20T17:05:38.425Z,5.40
2018-09-20T17:08:10.137Z,4.67
2018-09-20T17:10:41.612Z,4.37
2018-09-20T17:13:12.297Z,4.43
2018-09-20T17:15:46.424Z,7.20
2018-09-20T17:18:15.359Z,12.20
2018-09-20T17:20:47.507Z,6.33
2018-09-20T17:23:16.791Z,7.27
2018-09-20T17:25:47.433Z,4.53
2018-09-20T17:28:18.162Z,4.60
2018-09-20T17:31:09.127Z,5.70
2018-09-20T17:33:42.621Z,9.53
2018-09-20T17:36:14.521Z,4.33
2018-09-20T17:38:44.110Z,5.33
2018-09-20T17:41:16.314Z,6.53
2018-09-20T17:43:54.479Z,10.30
2018-09-20T17:46:26.608Z,7.50
2018-09-20T17:48:55.154Z,5.10
2018-09-20T17:51:27.216Z,7.23
2018-09-20T17:53:57.595Z,69.67
2018-09-20T17:56:27.385Z,54.67
2018-09-20T17:59:03.952Z,39.60
2018-09-20T18:01:40.562Z,26.33
2018-09-20T18:04:12.171Z,10.00
2018-09-20T18:06:40.723Z,8.90
2018-09-20T18:09:22.209Z,5.87
2018-09-20T18:11:50.762Z,8.80
2018-09-20T18:14:21.236Z,10.90
2018-09-20T18:16:53.807Z,6.10
2018-09-20T18:19:25.053Z,7.40
2018-09-20T18:21:57.305Z,8.33
2018-09-20T18:24:26.546Z,7.33
2018-09-20T18:26:56.969Z,5.37
2018-09-20T18:29:25.878Z,5.50
2018-09-20T18:31:54.437Z,6.60
2018-09-20T18:34:23.907Z,6.90
2018-09-20T18:36:53.229Z,9.20
2018-09-20T18:39:25.331Z,6.70
2018-09-20T18:41:54.052Z,6.00
2018-09-20T18:44:22.589Z,5.30
2018-09-20T18:46:52.635Z,6.60
2018-09-20T18:49:21.216Z,14.13
2018-09-20T18:51:50.848Z,6.30
2018-09-20T18:54:21.553Z,10.83
2018-09-20T18:56:50.546Z,5.97
2018-09-20T18:59:19.157Z,8.30
2018-09-20T19:01:47.907Z,8.53
2018-09-20T19:04:19.455Z,7.17
2018-09-20T19:06:48.024Z,6.37
2018-09-20T19:09:16.591Z,7.83
2018-09-20T19:11:46.926Z,8.03
2018-09-20T19:14:16.575Z,8.10
2018-09-20T19:16:45.242Z,5.83
2018-09-20T19:19:13.886Z,10.73
2018-09-20T19:21:43.665Z,6.83
2018-09-20T19:24:12.235Z,8.00
2018-09-20T19:26:47.559Z,5.90
2018-09-20T19:29:22.918Z,8.70
2018-09-20T19:31:51.507Z,6.17
2018-09-20T19:34:21.749Z,5.30
2018-09-20T19:36:50.286Z,5.57
2018-09-20T19:39:18.945Z,7.47
2018-09-20T19:41:48.427Z,5.73
2018-09-20T19:44:18.403Z,5.73
2018-09-20T19:46:48.247Z,8.93
2018-09-20T19:49:17.450Z,5.53
2018-09-20T19:51:47.701Z,6.43
2018-09-20T19:54:19.572Z,9.13
2018-09-20T19:56:49.079Z,7.40
2018-09-20T19:59:18.607Z,5.37
2018-09-20T20:01:47.880Z,12.90
2018-09-20T20:04:17.224Z,5.30
2018-09-20T20:09:36.211Z,8.50
2018-09-20T20:12:04.857Z,6.63
2018-09-20T20:14:33.463Z,6.00
2018-09-20T20:17:02.269Z,10.07
2018-09-20T20:19:30.992Z,7.67
2018-09-20T20:22:00.994Z,7.33
2018-09-20T20:24:29.608Z,5.73
2018-09-20T20:26:58.993Z,7.07
2018-09-20T20:29:27.541Z,11.53
2018-09-20T20:31:56.099Z,11.10
2018-09-20T20:34:24.674Z,12.00
2018-09-20T20:36:54.979Z,6.67
2018-09-20T20:39:23.583Z,7.63
2018-09-20T20:41:52.135Z,6.90
2018-09-20T20:44:20.688Z,18.73
2018-09-20T20:46:49.362Z,5.67
2018-09-20T20:49:18.120Z,5.87
2018-09-20T20:51:48.748Z,11.13
2018-09-20T20:54:17.345Z,5.07
2018-09-20T20:56:46.051Z,7.27
2018-09-20T20:59:14.630Z,6.00
2018-09-20T21:01:43.219Z,5.87
2018-09-20T21:04:12.733Z,5.30
2018-09-20T21:06:41.434Z,10.83
2018-09-20T21:09:11.055Z,8.07
2018-09-20T21:11:39.613Z,5.37
2018-09-20T21:14:08.187Z,5.93
2018-09-20T21:16:36.737Z,5.83
2018-09-20T21:19:05.358Z,7.27
2018-09-20T21:21:34.065Z,10.50
2018-09-20T21:24:02.786Z,5.50
2018-09-20T21:26:31.445Z,14.63
2018-09-20T21:29:00.709Z,7.03
2018-09-20T21:31:30.193Z,9.03
2018-09-20T21:33:58.815Z,8.50
2018-09-20T21:36:27.516Z,7.27
2018-09-20T21:38:56.432Z,7.00
2018-09-20T21:41:24.998Z,9.77
2018-09-20T21:43:55.615Z,5.70
2018-09-20T21:46:24.200Z,6.90
2018-09-20T21:48:53.706Z,5.77
2018-09-20T21:51:24.336Z,9.83
2018-09-20T21:53:52.896Z,10.23
2018-09-20T21:57:00.085Z,14.40
2018-09-20T21:59:28.750Z,9.57
2018-09-20T22:02:02.207Z,9.30
2018-09-20T22:04:35.030Z,5.37
2018-09-20T22:07:03.268Z,6.60
2018-09-20T22:09:31.790Z,8.00
2018-09-20T22:12:00.142Z,13.50
2018-09-20T22:14:28.376Z,8.43
2018-09-20T22:16:56.795Z,7.47
2018-09-20T22:19:26.063Z,6.53
2018-09-20T22:21:54.315Z,6.80
2018-09-20T22:24:22.532Z,8.33
2018-09-20T22:26:51.833Z,6.00
2018-09-20T22:29:20.084Z,9.90
2018-09-20T22:31:48.316Z,7.37
2018-09-20T22:34:16.589Z,5.77
2018-09-20T22:36:46.025Z,6.83
2018-09-20T22:39:15.117Z,10.27
2018-09-20T22:41:43.707Z,5.43
2018-09-20T22:44:11.925Z,5.87
2018-09-20T22:46:40.149Z,6.13
2018-09-20T22:49:08.394Z,7.50
2018-09-20T22:51:36.653Z,8.10
2018-09-20T22:54:04.924Z,11.30
2018-09-20T22:56:34.234Z,5.67
2018-09-20T22:59:02.470Z,7.20
2018-09-20T23:01:30.799Z,5.30
2018-09-20T23:03:59.047Z,9.73
2018-09-20T23:06:28.005Z,9.03
2018-09-20T23:08:56.232Z,9.10
2018-09-20T23:11:24.484Z,7.63
2018-09-20T23:13:52.717Z,6.20
2018-09-20T23:16:20.934Z,5.50
2018-09-20T23:18:50.210Z,7.37
2018-09-20T23:21:18.433Z,6.13
2018-09-20T23:23:46.788Z,8.83
2018-09-20T23:26:15.259Z,6.40
2018-09-20T23:28:43.498Z,8.27
2018-09-20T23:31:11.995Z,7.47
2018-09-20T23:33:40.199Z,7.30
2018-09-20T23:36:08.447Z,6.90
2018-09-20T23:38:36.691Z,8.13
2018-09-20T23:41:04.939Z,7.87
2018-09-20T23:43:33.180Z,13.23
2018-09-20T23:49:18.970Z,7.10
